Time;durP1;ratioP1;P1;durP2;ratioP2;P2;SDS_P1;SDS_P2;PMS_P1;PMS_P2;Temp;Humidity;BMP_temperature;BMP_pressure;BME280_temperature;BME280_humidity;BME280_pressure;Samples;Min_cycle;Max_cycle;Signal;HPM_P1;HPM_P2
2022/10/19 00:01:29;;;;;;;37.78;24.35;;;;;;;3.41;84.86;98308.63;10331343;28;20112;-57
2022/10/19 00:06:31;;;;;;;35.45;24.15;;;;;;;3.30;84.22;98279.13;10330572;28;20038;-57
2022/10/19 00:11:32;;;;;;;34.88;23.58;;;;;;;3.44;84.26;98301.03;10331395;28;20076;-57
2022/10/19 00:16:34;;;;;;;29.83;19.08;;;;;;;3.40;84.61;98289.78;10330376;28;20068;-57
2022/10/19 00:21:33;;;;;;;28.00;18.10;;;;;;;3.32;84.69;98283.50;10330654;28;20076;-57
2022/10/19 00:26:33;;;;;;;26.55;18.17;;;;;;;3.26;85.51;98288.44;10329900;28;20108;-57
2022/10/19 00:31:31;;;;;;;;;;;;;;;3.23;85.62;98284.03;10330888;28;20508;-57
2022/10/19 00:36:33;;;;;;;25.33;16.45;;;;;;;3.21;85.59;98275.44;10329549;28;20400;-57
2022/10/19 00:41:34;;;;;;;27.50;17.50;;;;;;;3.13;85.55;98270.84;10329506;28;20080;-57
2022/10/19 00:46:36;;;;;;;26.48;16.75;;;;;;;2.97;86.05;98269.38;10329679;28;20080;-57
2022/10/19 00:51:39;;;;;;;26.88;16.95;;;;;;;2.89;85.99;98256.31;10329644;28;20075;-57
2022/10/19 00:56:41;;;;;;;28.00;17.88;;;;;;;2.80;85.64;98246.56;10329830;28;20081;-57
2022/10/19 01:01:43;;;;;;;30.98;19.25;;;;;;;2.73;85.88;98241.16;10329892;28;20076;-57
2022/10/19 01:06:42;;;;;;;30.67;18.08;;;;;;;2.68;86.11;98235.88;10328746;28;20084;-57
2022/10/19 01:11:59;;;;;;;34.00;21.52;;;;;;;2.64;86.09;98225.44;10329260;28;20040;-57
2022/10/19 01:17:48;;;;;;;32.40;20.65;;;;;;;2.58;86.06;98234.66;10329834;28;20477;-57
2022/10/19 01:23:15;;;;;;;31.95;21.02;;;;;;;2.54;86.24;98224.22;10282859;28;20108;-57
2022/10/19 01:28:32;;;;;;;32.22;19.27;;;;;;;2.48;86.03;98216.28;10331169;28;20504;-57
2022/10/19 01:33:49;;;;;;;29.05;17.90;;;;;;;2.45;86.46;98221.31;10336488;28;20072;-57
2022/10/19 01:39:09;;;;;;;31.02;19.13;;;;;;;2.32;86.53;98223.38;10336318;28;20061;-57
2022/10/19 01:44:31;;;;;;;31.02;19.40;;;;;;;2.33;87.07;98206.34;10335816;28;20072;-57
2022/10/19 01:49:37;;;;;;;28.27;18.33;;;;;;;2.26;86.73;98184.75;10336101;28;20069;-57
2022/10/19 01:54:41;;;;;;;35.45;19.52;;;;;;;2.31;87.13;98202.84;10335991;28;20075;-57
2022/10/19 01:59:41;;;;;;;33.53;19.63;;;;;;;2.26;87.26;98194.13;10335600;28;20539;-57
2022/10/19 02:04:41;;;;;;;32.80;18.45;;;;;;;2.26;87.01;98200.09;10335310;28;20080;-57
2022/10/19 02:09:40;;;;;;;33.83;19.67;;;;;;;2.22;87.20;98202.50;10335571;28;20562;-57
2022/10/19 02:14:44;;;;;;;29.40;17.70;;;;;;;2.19;87.44;98204.94;10335094;28;20061;-57
2022/10/19 02:19:44;;;;;;;29.48;16.77;;;;;;;2.08;87.58;98207.94;10334843;28;20072;-57
2022/10/19 02:24:43;;;;;;;31.38;16.73;;;;;;;2.02;86.76;98200.03;10335214;28;20092;-57
2022/10/19 02:29:42;;;;;;;26.67;16.77;;;;;;;1.91;86.70;98196.16;10334377;28;20037;-57
2022/10/19 02:34:41;;;;;;;27.15;17.40;;;;;;;1.93;86.68;98213.31;10334322;28;20096;-57
2022/10/19 02:39:40;;;;;;;30.98;18.10;;;;;;;1.86;86.48;98205.34;10333852;28;20061;-57
2022/10/19 02:44:46;;;;;;;29.55;18.48;;;;;;;1.83;86.65;98197.53;10333141;28;20018;-57
2022/10/19 02:49:46;;;;;;;30.80;18.27;;;;;;;1.77;86.58;98192.19;10333595;28;20073;-57
2022/10/19 02:54:45;;;;;;;31.20;19.58;;;;;;;1.75;86.75;98204.91;10333651;28;20081;-57
2022/10/19 02:59:45;;;;;;;32.78;18.83;;;;;;;1.61;87.55;98200.91;10333696;28;20081;-57
2022/10/19 03:04:44;;;;;;;;;;;;;;;1.54;88.01;98204.88;10333858;28;20067;-57
2022/10/19 03:09:44;;;;;;;43.27;24.23;;;;;;;1.37;88.43;98216.09;10331998;28;19956;-57
2022/10/19 03:14:43;;;;;;;36.95;23.55;;;;;;;1.27;88.48;98210.59;10333085;28;20095;-57
2022/10/19 03:19:42;;;;;;;29.58;19.23;;;;;;;1.21;88.53;98212.88;10332430;28;20061;-57
2022/10/19 03:24:41;;;;;;;39.58;20.75;;;;;;;1.19;88.79;98211.06;10332484;28;20083;-57
2022/10/19 03:29:40;;;;;;;31.90;20.55;;;;;;;1.20;88.68;98210.25;10332567;28;20029;-57
2022/10/19 03:34:39;;;;;;;41.63;24.52;;;;;;;1.14;88.72;98203.19;10332547;28;20179;-57
2022/10/19 03:39:38;;;;;;;39.17;24.23;;;;;;;1.14;88.49;98195.53;10331476;28;20041;-57
2022/10/19 03:44:37;;;;;;;42.40;25.02;;;;;;;1.11;88.83;98208.19;10331819;28;20040;-59
2022/10/19 03:49:36;;;;;;;49.70;27.38;;;;;;;1.08;88.71;98201.28;10331007;28;20025;-57
2022/10/19 03:54:35;;;;;;;49.38;25.10;;;;;;;1.12;88.70;98194.59;10331720;28;20116;-57
2022/10/19 03:59:34;;;;;;;39.65;23.83;;;;;;;1.13;88.74;98191.25;10331470;28;20088;-57
2022/10/19 04:04:33;;;;;;;36.70;22.63;;;;;;;1.16;88.57;98191.38;10330912;28;20030;-57
2022/10/19 04:09:32;;;;;;;39.10;21.65;;;;;;;1.02;88.64;98162.66;10330387;28;20084;-57
2022/10/19 04:14:31;;;;;;;39.30;21.95;;;;;;;1.18;88.70;98179.53;10330237;28;20037;-57
2022/10/19 04:19:31;;;;;;;45.10;27.00;;;;;;;1.09;89.18;98180.00;10330486;28;20099;-57
2022/10/19 04:24:30;;;;;;;37.42;21.05;;;;;;;0.87;89.31;98182.41;10330672;28;20095;-57
2022/10/19 04:29:29;;;;;;;33.83;17.83;;;;;;;0.67;88.75;98161.13;10330427;28;20092;-57
2022/10/19 04:34:28;;;;;;;31.65;17.08;;;;;;;0.72;88.57;98172.41;10330262;28;20105;-57
2022/10/19 04:39:27;;;;;;;30.33;16.25;;;;;;;0.74;88.19;98165.69;10329258;28;20064;-57
2022/10/19 04:44:26;;;;;;;35.70;17.90;;;;;;;0.72;87.95;98167.31;10327807;28;20044;-57
2022/10/19 04:49:25;;;;;;;36.00;19.25;;;;;;;0.72;87.71;98162.19;10329274;28;20034;-56
2022/10/19 04:54:24;;;;;;;49.17;23.70;;;;;;;0.72;87.91;98172.41;10329427;28;20038;-57
2022/10/19 04:59:23;;;;;;;81.78;41.40;;;;;;;0.69;87.80;98182.50;10330568;28;20520;-57
2022/10/19 05:04:22;;;;;;;87.28;43.20;;;;;;;0.67;87.95;98167.09;10336589;28;20077;-58
2022/10/19 05:09:21;;;;;;;91.18;44.72;;;;;;;0.71;87.84;98170.69;10339044;28;20041;-57
2022/10/19 05:14:20;;;;;;;74.50;39.55;;;;;;;0.77;87.94;98160.72;10337429;28;20065;-57
2022/10/19 05:19:19;;;;;;;64.13;34.53;;;;;;;0.84;88.07;98157.63;10338578;28;20022;-57
2022/10/19 05:24:18;;;;;;;79.18;31.20;;;;;;;0.95;88.24;98180.22;10336362;28;20492;-57
2022/10/19 05:29:17;;;;;;;62.05;30.63;;;;;;;0.92;88.18;98164.72;10337140;28;20128;-57
2022/10/19 05:34:16;;;;;;;66.18;30.75;;;;;;;0.98;88.24;98165.00;10337247;28;20080;-57
2022/10/19 05:39:16;;;;;;;66.38;32.22;;;;;;;1.14;88.23;98164.00;10338172;28;20321;-57
2022/10/19 05:44:21;;;;;;;66.35;35.20;;;;;;;1.17;88.09;98141.97;10336729;28;20073;-57
2022/10/19 05:49:21;;;;;;;74.28;38.38;;;;;;;1.41;88.09;98157.50;10335968;28;20076;-57
2022/10/19 05:54:20;;;;;;;76.70;39.22;;;;;;;1.47;88.03;98141.50;10336523;28;20061;-58
2022/10/19 05:59:20;;;;;;;81.10;39.05;;;;;;;1.69;87.82;98154.38;10333221;28;20103;-57
2022/10/19 06:04:19;;;;;;;66.97;38.35;;;;;;;1.82;87.68;98155.72;10333444;28;20077;-57
2022/10/19 06:09:18;;;;;;;59.45;36.15;;;;;;;1.98;87.38;98161.44;10334475;28;20034;-57
2022/10/19 06:14:17;;;;;;;63.00;33.92;;;;;;;2.11;87.11;98154.31;10335956;28;20037;-58
2022/10/19 06:19:16;;;;;;;56.03;33.13;;;;;;;2.25;86.60;98152.25;10336046;28;20026;-58
2022/10/19 06:24:15;;;;;;;57.10;33.35;;;;;;;2.42;86.62;98155.47;10334356;28;20552;-57
2022/10/19 06:29:14;;;;;;;48.65;26.80;;;;;;;2.53;86.92;98156.72;10334546;28;20432;-58
2022/10/19 06:34:13;;;;;;;40.83;24.50;;;;;;;2.74;86.97;98155.78;10335916;28;20346;-58
2022/10/19 06:39:12;;;;;;;37.80;24.48;;;;;;;2.94;87.26;98157.34;10335421;28;20551;-58
2022/10/19 06:44:10;;;;;;;41.20;26.40;;;;;;;3.17;86.48;98157.31;10335355;28;20033;-58
2022/10/19 06:49:12;;;;;;;38.13;25.27;;;;;;;3.34;86.73;98145.91;10335231;28;20570;-58
2022/10/19 06:54:11;;;;;;;41.13;26.25;;;;;;;3.56;86.43;98146.63;10334759;28;20081;-58
2022/10/19 06:59:12;;;;;;;43.95;31.70;;;;;;;3.74;86.90;98134.38;10334324;28;20053;-58
2022/10/19 07:04:11;;;;;;;42.53;29.30;;;;;;;3.91;86.40;98121.22;10335519;28;20075;-58
2022/10/19 07:09:10;;;;;;;51.88;37.70;;;;;;;4.10;86.06;98128.66;10334237;28;20108;-58
2022/10/19 07:14:09;;;;;;;48.58;32.38;;;;;;;4.40;85.79;98109.84;10334251;28;20048;-58
2022/10/19 07:19:08;;;;;;;53.13;36.30;;;;;;;4.60;84.86;98118.13;10333918;28;20037;-58
2022/10/19 07:24:08;;;;;;;50.63;34.78;;;;;;;4.81;83.98;98116.16;10332853;28;20061;-58
2022/10/19 07:29:07;;;;;;;48.58;35.38;;;;;;;5.02;83.84;98097.91;10333160;28;20084;-58
2022/10/19 07:34:06;;;;;;;42.38;30.77;;;;;;;5.43;82.97;98097.22;10333748;28;20077;-58
2022/10/19 07:39:06;;;;;;;45.67;31.13;;;;;;;5.72;82.35;98090.22;10333558;28;20064;-58
2022/10/19 07:44:05;;;;;;;45.45;31.02;;;;;;;6.06;81.62;98085.81;10332959;28;20534;-58
2022/10/19 07:49:09;;;;;;;43.15;29.27;;;;;;;6.37;81.27;98077.91;10332691;28;20029;-58
2022/10/19 07:54:08;;;;;;;38.97;25.60;;;;;;;6.65;78.87;98075.88;10331980;28;20064;-58
2022/10/19 07:59:08;;;;;;;43.55;29.13;;;;;;;6.88;78.51;98049.66;10332320;28;20077;-58
2022/10/19 08:04:07;;;;;;;41.42;28.02;;;;;;;7.27;76.95;98056.38;10332327;28;20172;-58
2022/10/19 08:09:06;;;;;;;41.17;25.98;;;;;;;7.53;75.86;98037.03;10331783;28;20021;-58
2022/10/19 08:14:06;;;;;;;31.83;23.35;;;;;;;7.84;74.04;98047.81;10331764;28;20048;-58
2022/10/19 08:19:08;;;;;;;28.95;20.73;;;;;;;8.20;74.04;98036.22;10331811;28;20068;-58
2022/10/19 08:24:07;;;;;;;24.98;17.33;;;;;;;8.43;71.65;98033.94;10331452;28;20505;-58
2022/10/19 08:29:11;;;;;;;20.92;15.15;;;;;;;8.81;71.03;98036.97;10331545;28;20525;-58
2022/10/19 08:34:11;;;;;;;23.77;14.43;;;;;;;9.11;71.16;98020.00;10331347;28;20068;-58
2022/10/19 08:39:13;;;;;;;21.58;14.52;;;;;;;9.38;70.56;98021.13;10331414;28;20057;-58
2022/10/19 08:44:42;;;;;;;19.50;13.20;;;;;;;9.70;69.50;98004.09;10331405;28;20064;-58
2022/10/19 08:49:42;;;;;;;25.90;15.05;;;;;;;9.97;67.50;98003.38;10331070;28;20065;-58
2022/10/19 08:55:04;;;;;;;18.00;12.82;;;;;;;10.20;64.65;98006.09;10330907;28;20061;-58
2022/10/19 09:00:06;;;;;;;20.88;13.10;;;;;;;10.54;62.91;97998.44;10324390;28;20204;-58
2022/10/19 09:05:42;;;;;;;21.58;13.88;;;;;;;10.84;61.96;97999.34;10331031;28;20119;-58
2022/10/19 09:10:43;;;;;;;18.65;11.38;;;;;;;11.17;60.21;97989.91;10322532;28;20081;-58
2022/10/19 09:15:45;;;;;;;19.40;14.98;;;;;;;11.55;58.81;97992.50;10330017;28;20056;-58
2022/10/19 09:20:48;;;;;;;16.98;9.48;;;;;;;11.88;56.31;97988.97;10330358;28;20084;-58
2022/10/19 09:25:49;;;;;;;14.18;9.50;;;;;;;12.16;56.80;97981.09;10330652;28;20073;-58
2022/10/19 09:30:53;;;;;;;17.92;9.32;;;;;;;12.52;57.03;97979.22;10330646;28;20476;-58
2022/10/19 09:35:54;;;;;;;23.98;7.75;;;;;;;12.83;55.73;97985.09;10330143;28;20076;-58
2022/10/19 09:40:57;;;;;;;17.00;7.10;;;;;;;13.12;54.04;97977.09;10329940;28;20068;-58
2022/10/19 09:46:05;;;;;;;8.68;5.18;;;;;;;13.44;53.26;97975.97;10330616;28;20099;-58
2022/10/19 09:51:12;;;;;;;9.65;5.18;;;;;;;13.70;51.10;97964.44;10337414;28;20173;-58
2022/10/19 09:56:20;;;;;;;11.20;4.90;;;;;;;13.94;49.39;97959.00;10337811;28;20075;-58
2022/10/19 10:01:32;;;;;;;7.32;4.65;;;;;;;14.27;48.41;97954.25;10337973;28;20081;-58
2022/10/19 10:06:32;;;;;;;11.88;5.10;;;;;;;14.54;48.23;97941.69;10337034;28;20480;-58
2022/10/19 10:11:38;;;;;;;7.40;4.18;;;;;;;14.86;45.97;97930.81;10336629;28;20084;-58
2022/10/19 10:16:37;;;;;;;7.40;3.80;;;;;;;15.18;44.11;97930.31;10337231;28;20053;-58
2022/10/19 10:21:53;;;;;;;13.73;4.55;;;;;;;15.42;43.23;97925.56;10335528;28;20026;-58
2022/10/19 10:26:58;;;;;;;7.38;4.20;;;;;;;15.68;41.23;97912.84;10334503;28;20057;-58
2022/10/19 10:32:06;;;;;;;7.53;4.25;;;;;;;15.99;38.62;97903.56;10333428;28;20224;-59
2022/10/19 10:37:13;;;;;;;6.68;4.38;;;;;;;16.39;39.10;97893.09;10332109;28;20076;-58
2022/10/19 10:42:18;;;;;;;6.07;4.00;;;;;;;16.69;38.10;97872.34;10334005;28;20068;-58
2022/10/19 10:47:22;;;;;;;6.95;3.72;;;;;;;16.89;37.30;97862.28;10332485;28;20057;-58
2022/10/19 10:52:21;;;;;;;6.32;3.92;;;;;;;17.10;35.64;97863.50;10333467;28;20068;-58
2022/10/19 10:57:22;;;;;;;7.32;3.42;;;;;;;17.31;34.57;97843.72;10333176;28;20079;-59
2022/10/19 11:02:47;;;;;;;6.00;3.05;;;;;;;17.59;33.15;97855.22;10333888;28;20053;-58
2022/10/19 11:07:51;;;;;;;5.40;3.20;;;;;;;17.77;32.02;97842.47;10333644;28;20057;-59
2022/10/19 11:13:03;;;;;;;4.78;2.92;;;;;;;17.87;29.88;97839.59;10333361;28;20059;-58
2022/10/19 11:18:31;;;;;;;4.85;3.17;;;;;;;18.06;31.13;97834.66;10332978;28;20500;-59
2022/10/19 11:23:59;;;;;;;5.35;3.45;;;;;;;18.33;30.58;97831.19;10331524;28;20081;-59
2022/10/19 11:29:30;;;;;;;6.82;4.07;;;;;;;18.50;30.62;97829.81;10336104;28;20077;-59
2022/10/19 11:35:10;;;;;;;6.80;3.83;;;;;;;18.73;30.89;97810.69;10335327;28;20068;-59
2022/10/19 11:40:23;;;;;;;6.53;3.90;;;;;;;18.83;30.80;97809.50;10335417;28;20068;-59
2022/10/19 11:45:41;;;;;;;7.38;3.90;;;;;;;18.96;30.66;97799.41;10334901;28;20494;-59
2022/10/19 11:51:01;;;;;;;4.75;3.50;;;;;;;18.99;30.85;97797.56;10335196;28;20080;-59
2022/10/19 11:56:04;;;;;;;5.85;3.67;;;;;;;19.08;31.45;97785.00;10333891;28;20072;-59
2022/10/19 12:01:20;;;;;;;6.25;4.20;;;;;;;19.08;29.65;97770.06;10333845;28;20130;-59
2022/10/19 12:06:45;;;;;;;8.25;4.43;;;;;;;19.46;30.12;97773.09;10334283;28;20068;-59
2022/10/19 12:11:47;;;;;;;11.63;5.45;;;;;;;19.64;30.19;97769.81;10332424;28;20455;-59
2022/10/19 12:16:51;;;;;;;7.70;4.07;;;;;;;19.79;30.66;97784.19;10333752;28;20067;-59
2022/10/19 12:21:57;;;;;;;6.07;4.03;;;;;;;19.84;30.37;97776.13;10333620;28;20088;-59
2022/10/19 12:26:57;;;;;;;5.45;3.85;;;;;;;19.78;29.19;97776.34;10333805;28;20069;-59
2022/10/19 12:31:58;;;;;;;6.65;3.65;;;;;;;19.75;28.90;97756.25;10332229;28;20552;-59
2022/10/19 12:37:03;;;;;;;8.10;3.67;;;;;;;19.93;29.49;97761.72;10330785;28;20060;-59
2022/10/19 12:42:26;;;;;;;5.90;3.42;;;;;;;19.99;29.71;97741.28;10326007;28;20064;-59
2022/10/19 12:47:25;;;;;;;6.25;3.42;;;;;;;20.03;29.82;97734.97;10328879;28;20076;-59
2022/10/19 12:52:51;;;;;;;4.75;3.58;;;;;;;20.09;28.76;97736.50;10330767;28;20039;-59
2022/10/19 12:58:00;;;;;;;6.70;3.60;;;;;;;19.75;29.34;97729.94;10332795;28;20716;-59
2022/10/19 13:03:24;;;;;;;6.35;3.90;;;;;;;19.54;28.83;97728.09;10331918;28;20088;-59
2022/10/19 13:08:31;;;;;;;6.10;4.07;;;;;;;19.64;29.08;97732.09;10331752;28;20072;-59
2022/10/19 13:14:01;;;;;;;7.05;3.80;;;;;;;19.82;28.96;97726.13;10332147;28;20057;-59
2022/10/19 13:19:12;;;;;;;8.32;4.15;;;;;;;20.01;28.64;97725.44;10332243;28;20073;-59
2022/10/19 13:24:23;;;;;;;6.47;3.53;;;;;;;20.21;28.26;97720.22;10339488;28;20060;-59
2022/10/19 13:29:27;;;;;;;8.48;4.20;;;;;;;20.35;29.10;97721.41;10340405;28;20057;-59
2022/10/19 13:34:27;;;;;;;5.63;3.80;;;;;;;20.40;29.00;97723.00;10339507;28;20076;-59
2022/10/19 13:39:27;;;;;;;6.90;4.10;;;;;;;20.41;29.56;97713.31;10339629;28;20086;-59
2022/10/19 13:44:32;;;;;;;6.95;3.92;;;;;;;20.38;29.68;97721.31;10339333;28;20065;-59
2022/10/19 13:50:06;;;;;;;9.00;4.00;;;;;;;20.31;29.68;97701.41;10338486;28;20053;-59
2022/10/19 13:55:27;;;;;;;6.57;3.05;;;;;;;20.28;28.84;97697.97;10323035;28;20061;-59
2022/10/19 14:00:48;;;;;;;5.15;3.28;;;;;;;20.30;28.59;97700.53;10333378;28;20073;-59
2022/10/19 14:06:14;;;;;;;10.57;4.35;;;;;;;20.26;29.12;97691.91;10334803;28;20068;-59
2022/10/19 14:11:13;;;;;;;5.28;3.60;;;;;;;20.07;29.09;97696.19;10334139;28;20084;-59
2022/10/19 14:16:20;;;;;;;6.20;4.30;;;;;;;20.02;29.33;97695.53;10334709;28;20017;-59
2022/10/19 14:21:30;;;;;;;7.70;4.05;;;;;;;19.90;29.46;97698.66;10333475;28;20061;-59
2022/10/19 14:26:29;;;;;;;6.75;3.85;;;;;;;19.71;28.76;97701.16;10333419;28;21609;-59
2022/10/19 14:31:34;;;;;;;11.13;4.95;;;;;;;19.62;29.46;97702.34;10332324;28;20073;-58
2022/10/19 14:36:38;;;;;;;18.60;13.45;;;;;;;19.49;30.47;97706.34;10332250;28;20111;-58
2022/10/19 14:41:37;;;;;;;7.63;5.13;;;;;;;19.29;30.70;97714.97;10333304;28;20065;-58
2022/10/19 14:46:36;;;;;;;11.10;4.93;;;;;;;19.06;30.00;97700.03;10334453;28;20104;-58
2022/10/19 14:51:59;;;;;;;8.60;5.03;;;;;;;18.93;30.18;97696.97;10333729;28;20030;-58
2022/10/19 14:57:33;;;;;;;9.77;5.28;;;;;;;18.75;30.33;97704.59;10336456;28;20077;-58
2022/10/19 15:02:37;;;;;;;12.50;5.97;;;;;;;18.41;30.33;97712.75;10332451;28;20061;-58
2022/10/19 15:07:39;;;;;;;15.70;9.27;;;;;;;18.26;30.66;97714.09;10333189;28;20077;-58
2022/10/19 15:12:41;;;;;;;17.17;9.02;;;;;;;18.18;31.93;97716.97;10333243;28;20064;-58
2022/10/19 15:18:01;;;;;;;27.95;11.00;;;;;;;17.96;33.65;97729.06;10333085;28;20677;-58
2022/10/19 15:23:21;;;;;;;32.35;13.18;;;;;;;17.63;34.75;97731.75;10332946;28;20072;-58
2022/10/19 15:28:32;;;;;;;24.17;13.57;;;;;;;17.21;36.71;97744.34;10332494;28;20064;-58
2022/10/19 15:33:42;;;;;;;23.27;12.60;;;;;;;16.81;36.94;97746.28;10332785;28;20065;-58
2022/10/19 15:38:41;;;;;;;;;;;;;;;16.45;38.12;97759.41;10332687;28;20072;-58
2022/10/19 15:43:49;;;;;;;28.50;14.27;;;;;;;16.07;39.16;97761.16;10331543;28;19945;-58
2022/10/19 15:48:53;;;;;;;39.65;16.13;;;;;;;15.65;40.13;97766.41;10332150;28;20100;-58
2022/10/19 15:54:17;;;;;;;34.63;21.38;;;;;;;15.32;40.66;97770.59;10331550;28;20786;-58
2022/10/19 15:59:18;;;;;;;51.65;38.85;;;;;;;15.00;42.03;97773.81;10332064;28;20065;-58
2022/10/19 16:04:17;;;;;;;48.33;32.35;;;;;;;14.66;42.44;97779.59;10333216;28;20056;-58
2022/10/19 16:09:18;;;;;;;;;;;;;;;14.34;43.18;97791.44;10334812;28;20041;-58
2022/10/19 16:14:16;;;;;;;34.33;22.65;;;;;;;14.07;43.84;97802.28;10333795;28;19948;-58
2022/10/19 16:19:15;;;;;;;46.83;31.27;;;;;;;13.67;44.59;97798.44;10334518;28;20071;-58
2022/10/19 16:24:14;;;;;;;33.42;20.70;;;;;;;13.55;45.65;97803.81;10334531;28;20505;-58
2022/10/19 16:29:13;;;;;;;36.65;21.30;;;;;;;13.34;45.56;97815.34;10331775;28;20037;-58
2022/10/19 16:34:12;;;;;;;32.33;22.35;;;;;;;13.17;46.47;97825.09;10333673;28;20037;-58
2022/10/19 16:39:11;;;;;;;39.50;24.85;;;;;;;12.97;46.82;97839.16;10330701;28;20484;-58
2022/10/19 16:44:11;;;;;;;35.85;23.70;;;;;;;12.79;47.56;97828.88;10329850;28;20045;-58
2022/10/19 16:49:10;;;;;;;39.00;27.77;;;;;;;12.55;47.98;97836.03;10322331;28;20117;-58
2022/10/19 16:54:11;;;;;;;40.58;24.60;;;;;;;12.37;48.60;97843.97;10326611;28;20077;-60
2022/10/19 16:59:13;;;;;;;41.58;27.45;;;;;;;12.19;48.84;97847.53;10339501;28;20555;-58
2022/10/19 17:04:13;;;;;;;32.08;20.67;;;;;;;12.03;49.95;97854.56;10340658;28;20075;-58
2022/10/19 17:09:12;;;;;;;49.83;28.60;;;;;;;11.79;48.90;97866.78;10342422;28;20068;-58
2022/10/19 17:14:11;;;;;;;43.25;24.77;;;;;;;11.64;48.74;97859.03;10342723;28;20064;-58
2022/10/19 17:19:10;;;;;;;36.50;24.50;;;;;;;11.58;49.14;97866.88;10342141;28;20500;-58
2022/10/19 17:24:14;;;;;;;32.33;23.65;;;;;;;11.44;49.00;97875.56;10342387;28;20570;-58
2022/10/19 17:29:13;;;;;;;42.38;27.30;;;;;;;11.15;49.80;97853.97;10342548;28;20079;-58
2022/10/19 17:34:12;;;;;;;42.22;27.02;;;;;;;11.19;50.00;97879.09;10341567;28;20021;-58
2022/10/19 17:39:13;;;;;;;;;;;;;;;11.15;50.50;97883.44;10342957;28;20064;-58
2022/10/19 17:44:13;;;;;;;55.47;44.60;;;;;;;11.06;51.22;97880.84;10342180;28;19960;-58
2022/10/19 17:49:13;;;;;;;37.65;27.27;;;;;;;10.96;51.56;97879.09;10341083;28;20056;-58
2022/10/19 17:54:13;;;;;;;36.40;24.15;;;;;;;10.83;52.23;97875.63;10341944;28;20080;-58
2022/10/19 17:59:12;;;;;;;32.97;22.60;;;;;;;10.74;52.38;97875.63;10341407;28;20080;-58
2022/10/19 18:04:11;;;;;;;38.95;23.27;;;;;;;10.64;52.51;97881.69;10341097;28;20065;-58
2022/10/19 18:09:10;;;;;;;37.10;24.52;;;;;;;10.48;53.42;97893.78;10335746;28;20025;-58
2022/10/19 18:14:11;;;;;;;51.58;35.65;;;;;;;10.37;53.18;97885.97;10335369;28;20048;-58
2022/10/19 18:19:11;;;;;;;55.17;35.88;;;;;;;10.20;55.29;97898.91;10335793;28;20069;-58
2022/10/19 18:24:12;;;;;;;61.13;41.03;;;;;;;9.98;56.15;97903.16;10334230;28;20081;-58
2022/10/19 18:29:16;;;;;;;66.70;44.55;;;;;;;9.94;56.57;97893.63;10330088;28;20053;-57
2022/10/19 18:34:16;;;;;;;189.93;131.90;;;;;;;9.88;56.70;97903.97;10333508;28;20337;-58
2022/10/19 18:39:16;;;;;;;99.88;63.30;;;;;;;9.83;56.99;97919.50;10334738;28;20088;-58
2022/10/19 18:44:15;;;;;;;77.40;50.72;;;;;;;9.75;57.16;97923.78;10333784;28;20064;-58
2022/10/19 18:49:15;;;;;;;96.53;61.80;;;;;;;9.64;57.83;97928.91;10333014;28;20044;-58
2022/10/19 18:54:14;;;;;;;101.18;59.88;;;;;;;9.59;58.07;97940.97;10334152;28;20375;-57
2022/10/19 18:59:13;;;;;;;115.65;63.72;;;;;;;9.48;58.78;97947.81;10326123;28;20053;-58
2022/10/19 19:04:12;;;;;;;128.07;71.38;;;;;;;9.26;58.92;97944.19;10333353;28;20080;-58
2022/10/19 19:09:12;;;;;;;92.38;57.45;;;;;;;9.22;59.40;97966.59;10332941;28;20033;-58
2022/10/19 19:14:14;;;;;;;99.68;58.38;;;;;;;9.09;60.06;97962.16;10332111;28;20069;-58
2022/10/19 19:19:15;;;;;;;108.57;65.88;;;;;;;9.01;60.24;97975.03;10330872;28;20132;-58
2022/10/19 19:24:17;;;;;;;86.40;53.90;;;;;;;8.97;61.00;97980.16;10331880;28;20064;-58
2022/10/19 19:29:17;;;;;;;97.80;66.50;;;;;;;8.89;61.65;97986.16;10332639;28;20076;-59
2022/10/19 19:34:16;;;;;;;87.65;51.53;;;;;;;8.85;62.01;97994.72;10331742;28;20068;-59
2022/10/19 19:39:18;;;;;;;92.47;53.10;;;;;;;8.79;63.10;97999.88;10332110;28;20072;-59
2022/10/19 19:44:18;;;;;;;104.80;60.60;;;;;;;8.67;63.17;97998.03;10331013;28;20588;-58
2022/10/19 19:49:16;;;;;;;105.35;60.30;;;;;;;8.68;63.59;98009.22;10329762;28;20065;-59
2022/10/19 19:54:16;;;;;;;92.82;58.45;;;;;;;8.73;64.05;98025.66;10331568;28;20044;-59
2022/10/19 19:59:15;;;;;;;79.68;51.83;;;;;;;8.79;64.22;98009.34;10330237;28;20077;-58
2022/10/19 20:04:14;;;;;;;79.07;50.13;;;;;;;8.93;64.29;98020.72;10330294;28;20065;-59
2022/10/19 20:09:13;;;;;;;69.40;44.97;;;;;;;9.06;63.93;98021.66;10331157;28;20076;-59
2022/10/19 20:14:12;;;;;;;70.40;43.97;;;;;;;9.19;63.59;98023.53;10330196;28;20492;-58
2022/10/19 20:19:13;;;;;;;66.35;41.03;;;;;;;9.32;62.67;98019.34;10329862;28;20516;-58
2022/10/19 20:24:12;;;;;;;76.93;45.75;;;;;;;9.27;62.73;98023.59;10330128;28;20061;-59
2022/10/19 20:29:11;;;;;;;84.38;52.53;;;;;;;9.43;62.44;98028.06;10329587;28;20061;-58
2022/10/19 20:34:12;;;;;;;82.65;53.67;;;;;;;9.55;62.34;98029.88;10329654;28;20113;-58
2022/10/19 20:39:11;;;;;;;60.42;42.45;;;;;;;9.48;62.80;98035.88;10330037;28;20556;-58
2022/10/19 20:44:10;;;;;;;67.68;46.55;;;;;;;9.48;63.25;98046.25;10329575;28;20496;-59
2022/10/19 20:49:11;;;;;;;114.97;84.03;;;;;;;9.52;63.67;98045.41;10330242;28;20026;-59
2022/10/19 20:54:11;;;;;;;72.80;51.63;;;;;;;9.69;63.59;98041.22;10329540;28;20073;-58
2022/10/19 20:59:13;;;;;;;63.28;41.67;;;;;;;9.83;63.41;98040.44;10329220;28;20375;-58
2022/10/19 21:04:14;;;;;;;58.47;41.05;;;;;;;9.92;63.15;98030.16;10329284;28;20076;-58
2022/10/19 21:09:15;;;;;;;59.20;41.97;;;;;;;10.00;62.89;98033.63;10329263;28;20069;-59
2022/10/19 21:14:26;;;;;;;59.80;41.95;;;;;;;10.16;62.66;98032.84;10328364;28;20504;-58
2022/10/19 21:19:28;;;;;;;57.90;39.90;;;;;;;10.22;62.05;98031.19;10329043;28;20072;-59
2022/10/19 21:24:31;;;;;;;48.88;31.33;;;;;;;10.16;62.40;98044.97;10329419;28;20068;-58
2022/10/19 21:29:30;;;;;;;56.13;38.38;;;;;;;10.02;63.14;98044.88;10329506;28;20117;-59
2022/10/19 21:34:30;;;;;;;29.10;19.95;;;;;;;9.76;64.08;98055.94;10328700;28;20057;-58
2022/10/19 21:39:29;;;;;;;26.33;18.38;;;;;;;9.63;64.69;98056.72;10328991;28;20064;-59
2022/10/19 21:44:27;;;;;;;28.75;17.63;;;;;;;9.76;64.72;98055.94;10334499;28;20033;-59
2022/10/19 21:49:26;;;;;;;25.75;16.05;;;;;;;9.90;64.73;98060.38;10336350;28;20112;-59
2022/10/19 21:54:27;;;;;;;25.23;14.68;;;;;;;9.85;63.29;98052.56;10336054;28;20089;-58
2022/10/19 21:59:26;;;;;;;20.55;13.18;;;;;;;9.99;63.00;98050.91;10334729;28;20081;-58
2022/10/19 22:04:26;;;;;;;27.40;15.43;;;;;;;10.06;62.88;98046.63;10334395;28;20045;-58
2022/10/19 22:09:24;;;;;;;22.42;15.23;;;;;;;10.16;62.75;98053.59;10334986;28;20069;-58
2022/10/19 22:14:23;;;;;;;28.02;17.05;;;;;;;10.25;62.45;98057.13;10331331;28;20476;-58
2022/10/19 22:19:25;;;;;;;23.80;17.27;;;;;;;10.25;62.66;98057.97;10331168;28;20253;-58
2022/10/19 22:24:24;;;;;;;25.63;17.55;;;;;;;10.26;62.37;98064.03;10332638;28;20500;-58
2022/10/19 22:29:22;;;;;;;26.73;18.98;;;;;;;10.22;63.17;98063.16;10334271;28;20425;-58
2022/10/19 22:34:21;;;;;;;32.50;21.15;;;;;;;10.10;63.50;98068.28;10334009;28;20033;-58
2022/10/19 22:39:20;;;;;;;23.60;17.95;;;;;;;9.88;64.77;98083.69;10334199;28;20020;-58
2022/10/19 22:44:19;;;;;;;27.42;18.15;;;;;;;9.70;64.87;98084.44;10334028;28;20100;-58
2022/10/19 22:49:18;;;;;;;28.35;18.83;;;;;;;9.62;64.34;98090.41;10333713;28;20520;-58
2022/10/19 22:54:17;;;;;;;33.45;22.30;;;;;;;9.59;64.96;98086.06;10333356;28;20080;-58
2022/10/19 22:59:16;;;;;;;34.05;22.23;;;;;;;9.64;64.29;98083.50;10333134;28;20059;-58
2022/10/19 23:04:15;;;;;;;30.73;21.30;;;;;;;9.67;64.53;98088.72;10332963;28;20025;-58
2022/10/19 23:09:14;;;;;;;32.85;22.45;;;;;;;9.68;64.79;98080.09;10333479;28;20057;-58
2022/10/19 23:14:14;;;;;;;38.75;24.02;;;;;;;9.70;65.58;98081.84;10333107;28;20083;-58
2022/10/19 23:19:13;;;;;;;33.53;24.38;;;;;;;9.71;65.58;98083.56;10333487;28;20057;-58